Time;durP1;ratioP1;P1;durP2;ratioP2;P2;SDS_P1;SDS_P2;PMS_P1;PMS_P2;Temp;Humidity;BMP_temperature;BMP_pressure;BME280_temperature;BME280_humidity;BME280_pressure;Samples;Min_cycle;Max_cycle;Signal;HPM_P1;HPM_P2
2022/06/28 00:00:40;;;;;;;0.00;0.00;;;24.50;53.00;;;;;;5052807;28;20108;-72
2022/06/28 00:03:06;;;;;;;0.00;0.00;;;24.60;53.10;;;;;;5051979;28;20029;-72
2022/06/28 00:05:32;;;;;;;0.00;0.00;;;24.80;52.40;;;;;;5052810;28;20021;-73
2022/06/28 00:07:59;;;;;;;0.00;0.00;;;25.00;52.70;;;;;;5034845;28;20078;-73
2022/06/28 00:10:26;;;;;;;0.00;0.00;;;25.10;52.60;;;;;;5052478;28;20021;-72
2022/06/28 00:12:52;;;;;;;0.00;0.00;;;25.00;52.70;;;;;;5054191;28;20526;-72
2022/06/28 00:18:03;;;;;;;0.00;0.00;;;25.50;52.90;;;;;;5051718;28;20430;-73
2022/06/28 00:20:29;;;;;;;0.00;0.00;;;25.60;53.60;;;;;;5050453;28;20025;-73
2022/06/28 00:22:55;;;;;;;0.30;0.30;;;26.00;54.00;;;;;;5053094;28;20033;-72
2022/06/28 00:25:21;;;;;;;0.05;0.05;;;26.60;51.40;;;;;;5056912;28;20025;-73
2022/06/28 00:27:47;;;;;;;0.30;0.30;;;27.00;50.90;;;;;;5052909;28;20025;-74
2022/06/28 00:30:14;;;;;;;0.00;0.00;;;27.10;52.00;;;;;;5054221;28;20067;-72
2022/06/28 00:32:40;;;;;;;0.00;0.00;;;27.10;52.90;;;;;;5052269;28;20468;-73
2022/06/28 00:35:06;;;;;;;0.00;0.00;;;27.70;53.40;;;;;;5051635;28;20135;-73
2022/06/28 00:37:32;;;;;;;0.00;0.00;;;28.10;52.80;;;;;;5049562;28;20067;-73
2022/06/28 00:39:58;;;;;;;0.65;0.65;;;28.90;50.10;;;;;;5050937;28;20033;-73
2022/06/28 00:42:25;;;;;;;0.10;0.10;;;29.50;49.20;;;;;;5049861;28;20032;-73
2022/06/28 00:44:51;;;;;;;2.63;1.10;;;29.70;48.40;;;;;;5052990;28;20021;-73
2022/06/28 00:47:18;;;;;;;0.15;0.15;;;29.80;46.60;;;;;;5052746;28;20501;-73
2022/06/28 00:49:44;;;;;;;0.00;0.00;;;30.20;48.70;;;;;;5053029;28;20048;-73
2022/06/28 00:52:12;;;;;;;0.00;0.00;;;30.90;49.80;;;;;;5051678;28;20061;-73
2022/06/28 00:54:38;;;;;;;0.45;0.45;;;31.20;47.00;;;;;;5054391;28;20111;-74
2022/06/28 00:57:05;;;;;;;0.00;0.00;;;31.10;44.50;;;;;;5057857;28;20071;-72
2022/06/28 00:59:31;;;;;;;0.00;0.00;;;30.40;48.30;;;;;;5050710;28;20359;-74
2022/06/28 01:01:58;;;;;;;0.00;0.00;;;30.00;48.60;;;;;;5055935;28;20108;-74
2022/06/28 01:04:25;;;;;;;1.00;0.55;;;29.80;50.10;;;;;;5049551;28;20048;-74
2022/06/28 01:06:52;;;;;;;0.00;0.00;;;30.10;50.30;;;;;;5050063;28;20028;-74
2022/06/28 01:09:18;;;;;;;0.00;0.00;;;30.60;49.40;;;;;;5047754;28;20021;-74
2022/06/28 01:11:44;;;;;;;0.10;0.10;;;30.70;50.60;;;;;;5045215;28;20040;-74
2022/06/28 01:14:10;;;;;;;4.05;2.92;;;31.00;46.60;;;;;;5050216;28;20096;-74
2022/06/28 01:16:38;;;;;;;2.13;1.92;;;32.10;47.20;;;;;;5046891;28;20039;-74
2022/06/28 01:19:07;;;;;;;1.10;1.10;;;32.60;44.50;;;;;;5049745;28;20112;-74
2022/06/28 01:21:36;;;;;;;0.00;0.00;;;33.10;43.30;;;;;;5052446;28;20041;-73
2022/06/28 01:24:04;;;;;;;0.00;0.00;;;33.50;44.20;;;;;;5045117;28;20070;-74
2022/06/28 01:26:30;;;;;;;0.00;0.00;;;33.80;42.40;;;;;;5046059;28;20383;-74
2022/06/28 01:28:57;;;;;;;0.00;0.00;;;34.50;44.00;;;;;;5041705;28;20025;-74
2022/06/28 01:31:23;;;;;;;0.00;0.00;;;34.70;43.30;;;;;;5049506;28;20120;-74
2022/06/28 01:33:53;;;;;;;2.03;1.92;;;34.60;41.60;;;;;;5050379;28;20037;-74
2022/06/28 01:36:20;;;;;;;0.10;0.10;;;34.60;39.50;;;;;;5046085;28;20028;-74
2022/06/28 01:38:46;;;;;;;0.00;0.00;;;33.90;40.10;;;;;;5049228;28;20029;-74
2022/06/28 01:43:59;;;;;;;0.50;0.50;;;34.10;42.20;;;;;;5049867;28;20073;-74
2022/06/28 01:46:26;;;;;;;0.00;0.00;;;34.30;39.40;;;;;;5049618;28;20056;-74
2022/06/28 01:48:54;;;;;;;0.20;0.20;;;34.20;40.00;;;;;;5048796;28;20017;-74
2022/06/28 01:51:20;;;;;;;1.05;1.02;;;34.60;38.50;;;;;;5049843;28;20036;-74
2022/06/28 01:53:46;;;;;;;0.22;0.22;;;34.70;39.50;;;;;;5045984;28;20337;-72
2022/06/28 01:56:12;;;;;;;1.05;1.05;;;34.40;38.10;;;;;;5044916;28;20033;-73
2022/06/28 01:58:40;;;;;;;6.80;3.00;;;34.40;39.70;;;;;;5045830;28;20020;-72
2022/06/28 02:01:06;;;;;;;1.10;1.00;;;34.10;39.40;;;;;;5047488;28;20029;-73
2022/06/28 02:03:33;;;;;;;0.20;0.20;;;33.00;39.80;;;;;;5051144;28;20025;-73
2022/06/28 02:05:59;;;;;;;1.88;1.77;;;33.50;39.60;;;;;;5049621;28;20458;-73
2022/06/28 02:08:25;;;;;;;0.00;0.00;;;33.70;38.70;;;;;;5045700;28;20036;-73
2022/06/28 02:10:51;;;;;;;0.00;0.00;;;33.60;39.70;;;;;;5048094;28;20024;-73
2022/06/28 02:13:17;;;;;;;0.52;0.30;;;33.30;40.80;;;;;;5050175;28;20032;-73
2022/06/28 02:15:43;;;;;;;1.38;1.15;;;33.80;39.70;;;;;;5045925;28;20327;-73
2022/06/28 02:18:09;;;;;;;1.38;1.27;;;33.90;38.20;;;;;;5047710;28;20078;-73
2022/06/28 02:20:35;;;;;;;0.15;0.15;;;33.80;38.20;;;;;;5049192;28;20382;-74
2022/06/28 02:23:01;;;;;;;2.17;2.08;;;33.80;39.40;;;;;;5048399;28;20037;-74
2022/06/28 02:25:27;;;;;;;0.90;0.28;;;34.40;37.60;;;;;;5046502;28;20066;-73
2022/06/28 02:27:53;;;;;;;0.00;0.00;;;35.00;36.00;;;;;;5044383;28;20033;-73
2022/06/28 02:30:21;;;;;;;0.00;0.00;;;34.50;36.70;;;;;;5043282;28;20037;-74
2022/06/28 02:32:47;;;;;;;0.05;0.05;;;34.80;37.00;;;;;;5044260;28;20498;-73
2022/06/28 02:40:42;;;;;;;2.90;1.35;;;37.80;32.70;;;;;;5044513;28;20046;-74
2022/06/28 02:43:08;;;;;;;0.00;0.00;;;36.80;33.70;;;;;;5040685;28;20032;-73
2022/06/28 02:45:35;;;;;;;0.25;0.25;;;36.20;34.60;;;;;;5043700;28;20055;-73
2022/06/28 02:48:02;;;;;;;0.00;0.00;;;36.80;33.10;;;;;;5040202;28;20044;-74
2022/06/28 02:50:29;;;;;;;0.20;0.20;;;37.50;32.30;;;;;;5041815;28;20049;-74
2022/06/28 02:52:55;;;;;;;0.52;0.52;;;38.00;32.00;;;;;;5043256;28;20470;-73
2022/06/28 02:55:21;;;;;;;0.40;0.35;;;36.90;32.70;;;;;;5045089;28;20108;-75
2022/06/28 02:57:47;;;;;;;0.00;0.00;;;35.90;34.20;;;;;;5051144;28;20100;-73
2022/06/28 03:00:15;;;;;;;0.10;0.10;;;35.80;34.70;;;;;;5046753;28;20466;-73
2022/06/28 03:02:43;;;;;;;0.00;0.00;;;36.40;33.40;;;;;;5041772;28;20051;-74
2022/06/28 03:05:13;;;;;;;0.00;0.00;;;38.00;32.70;;;;;;5044168;28;20029;-74
2022/06/28 03:07:39;;;;;;;0.00;0.00;;;38.70;31.60;;;;;;5039285;28;20210;-75
2022/06/28 03:10:07;;;;;;;0.05;0.05;;;39.70;30.00;;;;;;5040852;28;20606;-75
2022/06/28 03:12:33;;;;;;;0.32;0.32;;;40.60;29.90;;;;;;5038479;28;20033;-74
2022/06/28 03:15:00;;;;;;;0.55;0.40;;;40.80;29.70;;;;;;5044442;28;20032;-75
2022/06/28 03:17:26;;;;;;;0.00;0.00;;;40.60;28.20;;;;;;5039120;28;20034;-74
2022/06/28 03:19:52;;;;;;;1.83;1.75;;;40.30;29.60;;;;;;5038847;28;20036;-73
2022/06/28 03:22:18;;;;;;;0.00;0.00;;;40.20;28.10;;;;;;5035569;28;20147;-74
2022/06/28 03:24:46;;;;;;;0.00;0.00;;;40.50;27.90;;;;;;5029605;28;20029;-75
2022/06/28 03:27:13;;;;;;;0.20;0.20;;;40.90;27.70;;;;;;5029964;28;20402;-74
2022/06/28 03:29:39;;;;;;;0.00;0.00;;;41.30;28.00;;;;;;5045723;28;20113;-73
2022/06/28 03:32:06;;;;;;;0.40;0.40;;;41.10;27.20;;;;;;5047608;28;20044;-74
2022/06/28 03:34:34;;;;;;;0.15;0.15;;;41.10;27.40;;;;;;5048977;28;20033;-74
2022/06/28 03:37:00;;;;;;;0.00;0.00;;;41.50;27.40;;;;;;5045992;28;20642;-74
2022/06/28 03:39:27;;;;;;;1.30;1.05;;;41.30;27.30;;;;;;5044541;28;20029;-74
2022/06/28 03:41:52;;;;;;;0.30;0.30;;;40.70;26.80;;;;;;5050478;28;20048;-75
2022/06/28 03:44:18;;;;;;;0.10;0.10;;;40.60;26.40;;;;;;5043477;28;20021;-74
2022/06/28 03:46:44;;;;;;;0.00;0.00;;;40.20;27.40;;;;;;5044845;28;20033;-75
2022/06/28 03:49:10;;;;;;;0.13;0.13;;;40.50;27.20;;;;;;5049931;28;20064;-74
2022/06/28 03:51:36;;;;;;;0.00;0.00;;;41.10;27.40;;;;;;5046600;28;20049;-74
2022/06/28 03:54:03;;;;;;;0.00;0.00;;;40.50;27.30;;;;;;5047334;28;20048;-74
2022/06/28 03:56:29;;;;;;;0.98;0.98;;;40.60;27.10;;;;;;5049517;28;20033;-73
2022/06/28 03:58:55;;;;;;;0.00;0.00;;;40.20;27.40;;;;;;5050718;28;20353;-73
2022/06/28 04:01:21;;;;;;;0.00;0.00;;;40.20;27.80;;;;;;5043251;28;20120;-73
2022/06/28 04:03:47;;;;;;;0.00;0.00;;;39.20;28.20;;;;;;5050998;28;20371;-74
2022/06/28 04:06:13;;;;;;;0.13;0.13;;;37.10;29.50;;;;;;5050463;28;20033;-74
2022/06/28 04:08:39;;;;;;;0.10;0.10;;;36.80;29.80;;;;;;5050541;28;20033;-74
2022/06/28 04:11:14;;;;;;;1.08;1.08;;;36.30;30.60;;;;;;5049377;28;20060;-74
2022/06/28 04:13:42;;;;;;;1.45;1.20;;;34.90;31.30;;;;;;5051869;28;20021;-73
2022/06/28 04:16:09;;;;;;;4.65;1.92;;;34.80;33.70;;;;;;5049134;28;20056;-73
2022/06/28 04:18:35;;;;;;;0.00;0.00;;;34.90;32.30;;;;;;5047960;28;20021;-75
2022/06/28 04:21:01;;;;;;;0.00;0.00;;;35.20;33.00;;;;;;5047493;28;20635;-75
2022/06/28 04:23:27;;;;;;;0.20;0.20;;;35.50;31.30;;;;;;5041527;28;20530;-74
2022/06/28 04:25:53;;;;;;;0.00;0.00;;;35.30;31.90;;;;;;5049479;28;20083;-75
2022/06/28 04:28:19;;;;;;;0.32;0.32;;;35.20;32.60;;;;;;5049844;28;20020;-74
2022/06/28 04:30:45;;;;;;;0.00;0.00;;;35.40;30.90;;;;;;5048981;28;20505;-75
2022/06/28 04:33:11;;;;;;;0.03;0.03;;;35.00;31.10;;;;;;5047313;28;21713;-75
2022/06/28 04:35:37;;;;;;;0.00;0.00;;;35.20;31.10;;;;;;5051198;28;20039;-75
2022/06/28 04:38:03;;;;;;;0.00;0.00;;;35.10;32.70;;;;;;5045763;28;20025;-74
2022/06/28 04:40:29;;;;;;;0.10;0.10;;;35.10;31.40;;;;;;5042834;28;20041;-74
2022/06/28 04:42:56;;;;;;;0.00;0.00;;;35.00;31.80;;;;;;5042637;28;20390;-73
2022/06/28 04:45:22;;;;;;;0.10;0.10;;;34.30;32.60;;;;;;5043585;28;20029;-74
2022/06/28 04:47:48;;;;;;;0.00;0.00;;;34.20;33.60;;;;;;5043700;28;20029;-73
2022/06/28 04:50:14;;;;;;;1.27;0.85;;;34.10;32.80;;;;;;5045152;28;20017;-74
2022/06/28 04:52:40;;;;;;;0.30;0.30;;;34.30;32.30;;;;;;5048270;28;21262;-74
2022/06/28 04:55:07;;;;;;;0.00;0.00;;;34.60;32.50;;;;;;5043618;28;20036;-74
2022/06/28 04:57:33;;;;;;;0.00;0.00;;;34.70;32.30;;;;;;5041186;28;20502;-74
2022/06/28 04:59:59;;;;;;;0.00;0.00;;;34.50;31.90;;;;;;5045144;28;20039;-75
2022/06/28 05:02:25;;;;;;;0.00;0.00;;;34.70;32.00;;;;;;5043237;28;20017;-74
2022/06/28 05:04:51;;;;;;;0.00;0.00;;;34.90;31.60;;;;;;5044583;28;20096;-74
2022/06/28 05:07:17;;;;;;;3.10;2.80;;;34.50;32.70;;;;;;5045361;28;20074;-73
2022/06/28 05:09:43;;;;;;;0.03;0.00;;;34.60;32.60;;;;;;5046740;28;20451;-76
2022/06/28 05:12:09;;;;;;;0.17;0.08;;;34.10;32.80;;;;;;5050777;28;20454;-74
2022/06/28 05:14:36;;;;;;;0.38;0.38;;;34.10;32.50;;;;;;5052321;28;20020;-76
2022/06/28 05:17:02;;;;;;;0.00;0.00;;;34.30;32.80;;;;;;5055865;28;20021;-74
2022/06/28 05:19:30;;;;;;;1.52;1.45;;;34.30;34.00;;;;;;5055216;28;20028;-74
2022/06/28 05:21:56;;;;;;;0.03;0.03;;;34.10;31.80;;;;;;5044772;28;20459;-74
2022/06/28 05:24:22;;;;;;;0.35;0.35;;;34.30;33.10;;;;;;5047671;28;20025;-72
2022/06/28 05:26:49;;;;;;;0.95;0.52;;;34.10;32.80;;;;;;5043611;28;20071;-72
2022/06/28 05:29:16;;;;;;;0.00;0.00;;;33.80;31.70;;;;;;5048965;28;20398;-73
2022/06/28 05:31:42;;;;;;;1.73;1.20;;;33.90;33.60;;;;;;5046735;28;20036;-73
2022/06/28 05:34:11;;;;;;;0.00;0.00;;;33.90;33.50;;;;;;5048941;28;20081;-73
2022/06/28 05:36:38;;;;;;;0.03;0.03;;;34.00;33.50;;;;;;5046129;28;20378;-75
2022/06/28 05:39:05;;;;;;;0.00;0.00;;;34.00;33.40;;;;;;5050267;28;20052;-73
2022/06/28 05:41:32;;;;;;;0.52;0.52;;;34.30;33.20;;;;;;5052352;28;20047;-74
2022/06/28 05:43:58;;;;;;;0.00;0.00;;;34.60;33.40;;;;;;5046637;28;20094;-72
2022/06/28 05:46:25;;;;;;;0.22;0.22;;;34.50;34.30;;;;;;5043089;28;20064;-72
2022/06/28 05:48:51;;;;;;;0.10;0.10;;;34.70;34.60;;;;;;5044784;28;20052;-73
2022/06/28 05:51:18;;;;;;;0.00;0.00;;;34.20;33.80;;;;;;5048162;28;20083;-74
2022/06/28 05:53:44;;;;;;;0.10;0.10;;;34.10;34.00;;;;;;5042132;28;20083;-74
2022/06/28 05:56:10;;;;;;;0.38;0.38;;;34.40;34.60;;;;;;5028336;28;20029;-73
2022/06/28 05:58:36;;;;;;;0.52;0.52;;;34.30;32.90;;;;;;5038640;28;20074;-74
2022/06/28 06:01:04;;;;;;;0.00;0.00;;;34.10;33.80;;;;;;5035514;28;20108;-75
2022/06/28 06:03:30;;;;;;;1.33;0.22;;;33.90;30.10;;;;;;5041609;28;20025;-75
2022/06/28 06:05:59;;;;;;;0.10;0.10;;;34.10;33.20;;;;;;5042081;28;20029;-74
2022/06/28 06:08:25;;;;;;;0.00;0.00;;;34.20;32.70;;;;;;5044919;28;20025;-74
2022/06/28 06:10:53;;;;;;;0.22;0.22;;;34.40;31.60;;;;;;5042951;28;20017;-74
2022/06/28 06:13:19;;;;;;;0.00;0.00;;;34.40;32.00;;;;;;5042405;28;20404;-73
2022/06/28 06:15:46;;;;;;;0.15;0.15;;;34.50;31.30;;;;;;5047219;28;20501;-73
2022/06/28 06:18:12;;;;;;;0.10;0.10;;;34.60;29.20;;;;;;5022282;28;20409;-74
2022/06/28 06:20:38;;;;;;;2.50;2.35;;;34.50;28.90;;;;;;5042076;28;20071;-73
2022/06/28 06:23:04;;;;;;;0.00;0.00;;;34.60;28.90;;;;;;5038952;28;20021;-74
2022/06/28 06:25:30;;;;;;;0.00;0.00;;;34.50;29.40;;;;;;5037322;28;20033;-74
2022/06/28 06:27:56;;;;;;;0.00;0.00;;;34.80;29.80;;;;;;5043336;28;20038;-75
2022/06/28 06:30:22;;;;;;;0.00;0.00;;;34.70;28.60;;;;;;5040708;28;20406;-74
2022/06/28 06:32:48;;;;;;;1.58;1.55;;;34.60;28.20;;;;;;5043951;28;20028;-74
2022/06/28 06:35:14;;;;;;;0.52;0.52;;;34.30;29.40;;;;;;5044702;28;20033;-74
2022/06/28 06:37:40;;;;;;;0.85;0.55;;;34.70;29.50;;;;;;5044337;28;20025;-73
2022/06/28 06:40:06;;;;;;;0.38;0.22;;;34.50;30.00;;;;;;5049853;28;20056;-74
2022/06/28 06:42:32;;;;;;;0.00;0.00;;;34.70;30.00;;;;;;5045319;28;20482;-73
2022/06/28 06:44:58;;;;;;;2.60;2.22;;;34.60;30.00;;;;;;5044911;28;20025;-75
2022/06/28 06:47:24;;;;;;;0.10;0.10;;;34.70;31.10;;;;;;5044707;28;20025;-74
2022/06/28 06:49:50;;;;;;;0.10;0.10;;;34.40;30.90;;;;;;5043413;28;20024;-74
2022/06/28 06:52:17;;;;;;;0.40;0.25;;;34.40;31.00;;;;;;5041921;28;20521;-73
2022/06/28 06:54:43;;;;;;;3.00;2.17;;;34.50;31.30;;;;;;5041077;28;20040;-75
2022/06/28 06:57:09;;;;;;;0.20;0.20;;;34.50;30.80;;;;;;5044955;28;20025;-72
2022/06/28 06:59:35;;;;;;;4.25;3.95;;;34.70;30.00;;;;;;5047453;28;20025;-73
2022/06/28 07:02:01;;;;;;;2.13;1.05;;;34.80;30.30;;;;;;5043461;28;20025;-75
2022/06/28 07:04:27;;;;;;;0.22;0.20;;;35.00;30.00;;;;;;5041299;28;20040;-75
2022/06/28 07:14:18;;;;;;;4.03;1.77;;;34.00;30.80;;;;;;5015663;28;20068;-78
2022/06/28 07:16:48;;;;;;;0.10;0.03;;;34.10;31.20;;;;;;5015487;28;20037;-78
2022/06/28 07:19:14;;;;;;;0.03;0.03;;;34.00;30.30;;;;;;5032064;28;20060;-78
2022/06/28 07:21:41;;;;;;;0.00;0.00;;;34.30;31.50;;;;;;5029687;28;20120;-79
2022/06/28 07:24:11;;;;;;;0.00;0.00;;;34.60;30.60;;;;;;5035752;28;20493;-78
2022/06/28 07:26:37;;;;;;;0.30;0.30;;;35.00;32.00;;;;;;5040345;28;20018;-79
2022/06/28 07:29:04;;;;;;;1.23;1.23;;;34.90;31.00;;;;;;5037875;28;20505;-80
2022/06/28 07:31:30;;;;;;;0.17;0.13;;;35.00;30.00;;;;;;5044082;28;20029;-77
2022/06/28 07:34:00;;;;;;;0.10;0.10;;;34.80;30.20;;;;;;5042307;28;20021;-78
2022/06/28 07:36:26;;;;;;;0.00;0.00;;;34.60;30.90;;;;;;5052831;28;20035;-78
2022/06/28 07:38:54;;;;;;;0.00;0.00;;;34.60;31.10;;;;;;5057385;28;20005;-78
2022/06/28 07:41:23;;;;;;;0.15;0.15;;;34.60;32.60;;;;;;5063893;28;20013;-79
2022/06/28 07:43:53;;;;;;;2.50;1.58;;;34.80;31.40;;;;;;5050743;28;20040;-78
2022/06/28 07:46:20;;;;;;;0.30;0.30;;;34.70;31.20;;;;;;5033519;28;20021;-79
2022/06/28 07:48:47;;;;;;;1.30;1.17;;;34.70;30.80;;;;;;5045157;28;20029;-78
2022/06/28 07:53:58;;;;;;;0.00;0.00;;;34.50;30.80;;;;;;5047617;28;20028;-78
2022/06/28 07:56:24;;;;;;;0.00;0.00;;;34.30;30.40;;;;;;5045577;28;20021;-78
2022/06/28 07:58:51;;;;;;;0.00;0.00;;;34.50;31.60;;;;;;5030929;28;20427;-79
2022/06/28 08:01:17;;;;;;;0.10;0.10;;;34.90;30.80;;;;;;5045868;28;20168;-79
2022/06/28 08:03:43;;;;;;;0.10;0.10;;;35.00;30.30;;;;;;5031739;28;20036;-79
2022/06/28 08:06:09;;;;;;;0.08;0.05;;;35.30;29.90;;;;;;5044792;28;20556;-78
2022/06/28 08:08:36;;;;;;;0.30;0.30;;;35.90;28.90;;;;;;5042949;28;20103;-79
2022/06/28 08:11:02;;;;;;;0.45;0.30;;;35.40;30.00;;;;;;5036470;28;20075;-78
2022/06/28 08:13:28;;;;;;;1.25;0.68;;;35.20;30.00;;;;;;5031263;28;20041;-77
2022/06/28 08:15:54;;;;;;;0.95;0.32;;;35.20;30.00;;;;;;5044414;28;20099;-78
2022/06/28 08:18:20;;;;;;;1.75;1.58;;;35.10;30.20;;;;;;5058293;28;20041;-78
2022/06/28 08:20:46;;;;;;;0.57;0.57;;;35.00;30.00;;;;;;5047303;28;20124;-77
2022/06/28 08:23:13;;;;;;;0.25;0.25;;;35.00;29.50;;;;;;5030582;28;20029;-81
2022/06/28 08:25:42;;;;;;;0.55;0.47;;;34.90;29.10;;;;;;5043109;28;20393;-81
2022/06/28 08:28:10;;;;;;;0.00;0.00;;;35.20;29.20;;;;;;5049321;28;20113;-79
2022/06/28 08:30:37;;;;;;;0.00;0.00;;;35.30;29.60;;;;;;5012646;28;20025;-79
2022/06/28 08:33:15;;;;;;;0.00;0.00;;;34.90;29.20;;;;;;5032170;28;20032;-79
2022/06/28 08:35:45;;;;;;;0.52;0.52;;;35.30;29.60;;;;;;5026897;28;20059;-80
2022/06/28 08:38:12;;;;;;;0.00;0.00;;;35.50;29.50;;;;;;5041119;28;20024;-80
2022/06/28 08:40:39;;;;;;;0.43;0.40;;;35.70;29.40;;;;;;5038106;28;20044;-80
2022/06/28 08:43:06;;;;;;;0.10;0.10;;;35.90;29.10;;;;;;5027444;28;20074;-79
2022/06/28 08:45:33;;;;;;;0.00;0.00;;;36.10;29.00;;;;;;5030322;28;20025;-79
2022/06/28 08:48:07;;;;;;;0.00;0.00;;;36.20;29.30;;;;;;5045199;28;20135;-79
2022/06/28 08:50:39;;;;;;;0.00;0.00;;;36.30;28.30;;;;;;5033110;28;20021;-80
2022/06/28 08:53:08;;;;;;;0.00;0.00;;;35.90;28.90;;;;;;5022717;28;20319;-78
2022/06/28 08:55:35;;;;;;;0.00;0.00;;;36.30;29.70;;;;;;5040764;28;20021;-79
2022/06/28 08:58:08;;;;;;;0.00;0.00;;;36.30;30.50;;;;;;5042645;28;20083;-79
2022/06/28 09:00:36;;;;;;;0.10;0.10;;;36.70;30.80;;;;;;5044223;28;20641;-78
2022/06/28 09:03:03;;;;;;;0.00;0.00;;;36.80;30.00;;;;;;5046859;28;20032;-75
2022/06/28 09:05:29;;;;;;;0.75;0.68;;;36.70;30.00;;;;;;5045002;28;20029;-75
2022/06/28 09:07:57;;;;;;;0.00;0.00;;;36.00;29.90;;;;;;5032134;28;20166;-76
2022/06/28 09:10:23;;;;;;;0.20;0.20;;;35.80;31.00;;;;;;5033279;28;20029;-77
2022/06/28 09:12:55;;;;;;;3.20;3.00;;;36.10;31.10;;;;;;5031176;28;20044;-76
2022/06/28 09:15:25;;;;;;;2.60;0.30;;;36.00;30.40;;;;;;5047774;28;20041;-75
2022/06/28 09:17:55;;;;;;;0.28;0.28;;;36.10;30.90;;;;;;5032077;28;20363;-77
2022/06/28 09:20:37;;;;;;;0.00;0.00;;;36.20;30.00;;;;;;5031777;28;20362;-77
2022/06/28 09:23:03;;;;;;;0.00;0.00;;;36.10;29.80;;;;;;5031072;28;20044;-79
2022/06/28 09:25:31;;;;;;;0.00;0.00;;;35.80;30.10;;;;;;5044075;28;20029;-79
2022/06/28 09:28:00;;;;;;;0.00;0.00;;;35.60;30.30;;;;;;5041727;28;20536;-79
2022/06/28 09:30:31;;;;;;;0.35;0.25;;;35.60;30.40;;;;;;5023274;28;20029;-73
2022/06/28 09:32:57;;;;;;;0.20;0.20;;;35.80;30.50;;;;;;5044144;28;20547;-78
2022/06/28 09:35:25;;;;;;;1.30;0.93;;;36.00;30.70;;;;;;5050372;28;20098;-78
2022/06/28 09:37:52;;;;;;;0.90;0.20;;;36.10;29.80;;;;;;5044031;28;20032;-78
2022/06/28 09:40:28;;;;;;;0.00;0.00;;;35.90;30.60;;;;;;5046326;28;20091;-78
2022/06/28 09:43:08;;;;;;;0.00;0.00;;;36.00;29.90;;;;;;5046990;28;20033;-77
2022/06/28 09:45:36;;;;;;;0.75;0.30;;;35.80;29.80;;;;;;5042238;28;20025;-76
2022/06/28 09:48:03;;;;;;;0.57;0.57;;;35.60;30.20;;;;;;5036161;28;20044;-76
2022/06/28 09:50:35;;;;;;;0.20;0.15;;;35.60;30.20;;;;;;5039596;28;20053;-76
2022/06/28 09:53:02;;;;;;;0.00;0.00;;;35.40;31.30;;;;;;5027687;28;20381;-76
2022/06/28 09:55:31;;;;;;;0.00;0.00;;;35.30;31.20;;;;;;5027659;28;20024;-77
2022/06/28 09:57:59;;;;;;;0.73;0.73;;;35.60;31.50;;;;;;5043334;28;20103;-76
2022/06/28 10:00:26;;;;;;;0.00;0.00;;;35.90;31.50;;;;;;5049359;28;20025;-80
2022/06/28 10:02:56;;;;;;;0.20;0.20;;;36.00;29.90;;;;;;5060768;28;20029;-76
2022/06/28 10:05:23;;;;;;;0.00;0.00;;;36.50;30.50;;;;;;5046390;28;20109;-75
2022/06/28 10:07:49;;;;;;;0.00;0.00;;;36.70;31.10;;;;;;5037703;28;20036;-77
2022/06/28 10:10:16;;;;;;;0.00;0.00;;;36.90;30.90;;;;;;5038171;28;20409;-76
2022/06/28 10:15:34;;;;;;;0.00;0.00;;;36.40;29.90;;;;;;5021489;28;20092;-74
2022/06/28 10:18:14;;;;;;;0.17;0.17;;;35.90;30.70;;;;;;5020938;28;20504;-77
2022/06/28 10:20:44;;;;;;;0.63;0.47;;;36.20;31.00;;;;;;5025296;28;20116;-77
2022/06/28 10:23:40;;;;;;;0.10;0.10;;;36.20;29.50;;;;;;5022082;28;20073;-77
2022/06/28 10:26:14;;;;;;;0.10;0.10;;;36.40;29.70;;;;;;5027025;28;20029;-77
2022/06/28 10:29:11;;;;;;;0.00;0.00;;;36.90;28.70;;;;;;5020571;28;20076;-78
2022/06/28 10:31:44;;;;;;;0.00;0.00;;;37.20;29.30;;;;;;5024795;28;20029;-76
2022/06/28 10:34:15;;;;;;;0.00;0.00;;;37.10;28.60;;;;;;5024836;28;20541;-77
2022/06/28 10:36:41;;;;;;;0.10;0.10;;;37.00;28.80;;;;;;5023548;28;20025;-75
2022/06/28 10:39:07;;;;;;;7.07;5.28;;;36.40;29.40;;;;;;5031757;28;20025;-74
2022/06/28 10:41:52;;;;;;;0.00;0.00;;;36.60;29.90;;;;;;5036553;28;20572;-76
2022/06/28 10:44:28;;;;;;;0.00;0.00;;;36.90;29.30;;;;;;5022718;28;20148;-75
2022/06/28 10:47:01;;;;;;;0.00;0.00;;;36.80;28.30;;;;;;5024364;28;20022;-77
2022/06/28 10:49:45;;;;;;;0.00;0.00;;;36.70;28.20;;;;;;5029462;28;20017;-76
2022/06/28 10:52:14;;;;;;;0.00;0.00;;;36.40;29.40;;;;;;5028263;28;20112;-77
2022/06/28 10:55:04;;;;;;;0.00;0.00;;;36.20;28.90;;;;;;5021030;28;20049;-76
2022/06/28 10:57:30;;;;;;;0.00;0.00;;;36.40;30.50;;;;;;5009527;28;20033;-75
2022/06/28 10:59:59;;;;;;;0.00;0.00;;;36.50;29.60;;;;;;5018867;28;20494;-76
2022/06/28 11:02:50;;;;;;;0.22;0.22;;;36.50;29.80;;;;;;5021689;28;20046;-76
2022/06/28 11:05:18;;;;;;;0.00;0.00;;;36.50;28.60;;;;;;5020646;28;20065;-75
2022/06/28 11:07:59;;;;;;;0.25;0.25;;;36.40;29.40;;;;;;5029259;28;20029;-79
2022/06/28 11:10:26;;;;;;;0.00;0.00;;;36.10;29.80;;;;;;5042505;28;20056;-81
2022/06/28 11:12:52;;;;;;;0.00;0.00;;;35.70;29.80;;;;;;5029705;28;20026;-79
2022/06/28 11:15:36;;;;;;;2.00;1.88;;;35.90;30.40;;;;;;5021062;28;20060;-79
2022/06/28 11:18:16;;;;;;;0.00;0.00;;;35.60;30.00;;;;;;5035488;28;20034;-78
2022/06/28 11:20:43;;;;;;;0.65;0.47;;;35.50;30.80;;;;;;5019477;28;20037;-79
2022/06/28 11:23:09;;;;;;;0.00;0.00;;;35.60;29.40;;;;;;5023403;28;20025;-77
2022/06/28 11:28:22;;;;;;;0.00;0.00;;;35.70;30.40;;;;;;5021757;28;20132;-79
2022/06/28 11:30:48;;;;;;;0.00;0.00;;;35.90;30.20;;;;;;5025023;28;20171;-77
2022/06/28 11:33:16;;;;;;;0.00;0.00;;;35.70;29.50;;;;;;5025957;28;20017;-77
2022/06/28 11:35:42;;;;;;;0.20;0.10;;;35.90;29.20;;;;;;5022577;28;20048;-80
2022/06/28 11:38:14;;;;;;;0.88;0.65;;;36.10;29.10;;;;;;5028923;28;20034;-76
2022/06/28 11:40:43;;;;;;;0.00;0.00;;;35.90;29.40;;;;;;5022116;28;20029;-77
2022/06/28 11:43:12;;;;;;;0.00;0.00;;;35.50;29.30;;;;;;5024728;28;20025;-78
2022/06/28 11:45:44;;;;;;;0.00;0.00;;;35.40;30.00;;;;;;5027109;28;20498;-79
2022/06/28 11:48:13;;;;;;;0.00;0.00;;;35.50;29.70;;;;;;5019893;28;20033;-76
2022/06/28 11:50:43;;;;;;;0.00;0.00;;;35.70;29.50;;;;;;5032851;28;20022;-77
2022/06/28 11:53:11;;;;;;;0.00;0.00;;;35.50;30.30;;;;;;5025989;28;20029;-79
2022/06/28 11:55:50;;;;;;;2.63;2.42;;;35.50;30.70;;;;;;5023966;28;20516;-78
2022/06/28 11:58:16;;;;;;;0.00;0.00;;;35.80;28.90;;;;;;5028633;28;20072;-77
2022/06/28 12:01:06;;;;;;;0.10;0.10;;;35.90;29.10;;;;;;5023694;28;20049;-78
2022/06/28 12:03:42;;;;;;;0.00;0.00;;;35.70;31.60;;;;;;5032023;28;20021;-77
2022/06/28 12:06:18;;;;;;;0.00;0.00;;;35.90;31.10;;;;;;5026812;28;20176;-78
2022/06/28 12:08:51;;;;;;;0.00;0.00;;;35.70;30.70;;;;;;5028407;28;20030;-78
2022/06/28 12:11:50;;;;;;;0.08;0.08;;;36.10;30.50;;;;;;5028159;28;20124;-79
2022/06/28 12:14:19;;;;;;;0.00;0.00;;;36.30;30.40;;;;;;5025570;28;20042;-78
2022/06/28 12:16:56;;;;;;;0.25;0.22;;;36.10;30.80;;;;;;5032075;28;20036;-78
2022/06/28 12:19:38;;;;;;;0.98;0.30;;;35.90;31.80;;;;;;5038922;28;20075;-78
2022/06/28 12:22:10;;;;;;;0.00;0.00;;;35.80;31.40;;;;;;5028036;28;20132;-78
2022/06/28 12:24:42;;;;;;;0.00;0.00;;;35.70;32.00;;;;;;5026827;28;20032;-78
2022/06/28 12:27:10;;;;;;;0.00;0.00;;;35.60;31.60;;;;;;5029449;28;20028;-78
2022/06/28 12:29:37;;;;;;;0.00;0.00;;;35.60;32.30;;;;;;5028725;28;20056;-78
2022/06/28 12:32:03;;;;;;;0.00;0.00;;;35.60;32.10;;;;;;5032162;28;20028;-76
2022/06/28 12:34:29;;;;;;;0.00;0.00;;;35.60;32.30;;;;;;5027131;28;20484;-78
2022/06/28 12:36:56;;;;;;;0.13;0.13;;;35.60;31.30;;;;;;5030651;28;20485;-76
2022/06/28 12:39:22;;;;;;;0.00;0.00;;;35.60;31.80;;;;;;5029925;28;20030;-78
2022/06/28 12:41:51;;;;;;;0.20;0.20;;;35.40;31.70;;;;;;5024757;28;20120;-77
2022/06/28 12:44:17;;;;;;;0.35;0.35;;;35.50;31.40;;;;;;5030316;28;20051;-78
2022/06/28 12:46:45;;;;;;;0.00;0.00;;;35.40;31.60;;;;;;5026399;28;20021;-77
2022/06/28 12:49:11;;;;;;;0.00;0.00;;;35.30;31.60;;;;;;5033962;28;20032;-77
2022/06/28 12:51:37;;;;;;;0.00;0.00;;;35.20;32.00;;;;;;5029701;28;20029;-78
2022/06/28 12:54:04;;;;;;;0.00;0.00;;;35.00;32.40;;;;;;5024265;28;20425;-77
2022/06/28 12:56:30;;;;;;;0.00;0.00;;;35.00;32.30;;;;;;5024322;28;20022;-77
2022/06/28 12:58:59;;;;;;;0.20;0.20;;;35.00;32.80;;;;;;5029711;28;20133;-77
2022/06/28 13:01:25;;;;;;;0.00;0.00;;;34.80;32.90;;;;;;5028800;28;20140;-79
2022/06/28 13:03:51;;;;;;;0.00;0.00;;;35.00;32.80;;;;;;5033852;28;20061;-79
2022/06/28 13:06:18;;;;;;;0.00;0.00;;;34.80;33.30;;;;;;5028459;28;20115;-79
2022/06/28 13:08:44;;;;;;;0.03;0.03;;;34.60;33.40;;;;;;5029823;28;20071;-78
2022/06/28 13:11:12;;;;;;;0.00;0.00;;;34.50;33.10;;;;;;5033991;28;20049;-78
2022/06/28 13:13:38;;;;;;;0.00;0.00;;;34.40;33.60;;;;;;5036270;28;20037;-78
2022/06/28 13:16:05;;;;;;;0.00;0.00;;;34.50;32.90;;;;;;5041733;28;20033;-78
2022/06/28 13:18:31;;;;;;;0.00;0.00;;;34.40;33.50;;;;;;5048788;28;20048;-79